Terminal Aerodrome Forecast
Issued by NWS

Home | Current Version | Previous Version | Graphics & Text | Print | Product List | Glossary On
Versions: 1 2 3 4 5 6 7 8 9 10 11 12 13 14 15 16 17 18 19 20 21 22 23
337
FTUS43 KLOT 202331
TAFMDW
TAF
KMDW 202331Z 2100/2206 20005KT P6SM OVC018
     FM210600 VRB03KT 5SM BR OVC009
     FM211200 15003KT 3SM -DZ BR OVC007
     FM211400 14003KT 1SM -DZ BR OVC005
      TEMPO 2115/2118 3/4SM -DZ BR OVC003
     FM211900 11004KT 1 1/2SM -DZ BR OVC003=

USA.gov is the U.S. government's official web portal to all federal, state and local government web resources and services.